Time;durP1;ratioP1;P1;durP2;ratioP2;P2;SDS_P1;SDS_P2;PMS_P1;PMS_P2;Temp;Humidity;BMP_temperature;BMP_pressure;BME280_temperature;BME280_humidity;BME280_pressure;Samples;Min_cycle;Max_cycle;Signal;HPM_P1;HPM_P2
2023/09/01 00:00:59;;;;;;;7.10;6.50;;;;;;;16.97;100.00;99042.52;109678;1250;71239;-69
2023/09/01 00:03:42;;;;;;;7.00;6.50;;;;;;;16.96;100.00;99042.11;109596;1250;61006;-69
2023/09/01 00:06:15;;;;;;;6.60;6.00;;;;;;;16.97;100.00;99040.73;109657;1250;60747;-68
2023/09/01 00:08:42;;;;;;;6.20;5.70;;;;;;;16.98;100.00;99039.56;109670;1250;74361;-69
2023/09/01 00:11:10;;;;;;;5.80;5.40;;;;;;;16.99;100.00;99043.37;109695;1250;67293;-70
2023/09/01 00:13:37;;;;;;;6.80;6.30;;;;;;;16.98;100.00;99048.02;109569;1250;72507;-70
2023/09/01 00:16:04;;;;;;;6.60;6.10;;;;;;;16.95;100.00;99053.29;109716;1249;61812;-70
2023/09/01 00:18:30;;;;;;;6.40;5.90;;;;;;;16.91;100.00;99052.20;109672;1250;60229;-69
2023/09/01 00:20:58;;;;;;;6.20;5.70;;;;;;;16.88;100.00;99051.83;109686;1250;73152;-70
2023/09/01 00:23:25;;;;;;;6.10;5.60;;;;;;;16.89;100.00;99051.11;109603;1250;67801;-69
2023/09/01 00:25:55;;;;;;;6.00;5.60;;;;;;;16.91;100.00;99054.52;109674;1250;72446;-68
2023/09/01 00:28:22;;;;;;;6.30;5.80;;;;;;;16.90;100.00;99054.73;109646;1250;60857;-68
2023/09/01 00:30:57;;;;;;;6.00;5.60;;;;;;;16.87;100.00;99057.17;109632;1250;60148;-68
2023/09/01 00:33:29;;;;;;;6.10;5.60;;;;;;;16.84;100.00;99059.66;109570;1250;73403;-68
2023/09/01 00:35:56;;;;;;;6.30;5.70;;;;;;;16.81;100.00;99062.52;109571;1250;67412;-69
2023/09/01 00:38:26;;;;;;;6.40;5.90;;;;;;;16.81;100.00;99063.54;109671;1250;71237;-69
2023/09/01 00:40:53;;;;;;;7.00;6.40;;;;;;;16.86;100.00;99068.96;109677;1250;62280;-68
2023/09/01 00:43:19;;;;;;;6.30;5.80;;;;;;;16.93;100.00;99073.23;109665;1250;60119;-69
2023/09/01 00:45:46;;;;;;;5.40;5.00;;;;;;;17.01;100.00;99075.80;109635;1250;58908;-70
2023/09/01 00:48:13;;;;;;;6.30;5.90;;;;;;;17.09;100.00;99077.62;109694;1250;67751;-68
2023/09/01 00:50:40;;;;;;;9.70;6.80;;;;;;;17.15;100.00;99067.44;109680;1250;72407;-69
2023/09/01 00:53:07;;;;;;;6.00;5.50;;;;;;;17.22;100.00;99067.95;109505;1250;62025;-69
2023/09/01 00:55:34;;;;;;;6.30;5.40;;;;;;;17.29;100.00;99068.98;109548;1250;58894;-69
2023/09/01 00:58:01;;;;;;;5.90;5.50;;;;;;;17.37;100.00;99068.66;109610;1250;74463;-70
2023/09/01 01:00:28;;;;;;;7.20;6.50;;;;;;;17.44;100.00;99068.12;109706;1249;67913;-68
2023/09/01 01:02:56;;;;;;;6.30;5.80;;;;;;;17.49;100.00;99065.95;109726;1250;72544;-69
2023/09/01 01:05:28;;;;;;;6.30;5.80;;;;;;;17.53;100.00;99065.30;109574;1255;60570;-70
2023/09/01 01:08:05;;;;;;;6.60;6.00;;;;;;;17.58;100.00;99063.31;109638;1250;58908;-68
2023/09/01 01:10:39;;;;;;;5.80;5.40;;;;;;;17.68;100.00;99067.58;109532;1251;74706;-68
2023/09/01 01:13:09;;;;;;;6.10;5.50;;;;;;;17.74;100.00;99070.11;109695;1250;68097;-69
2023/09/01 01:15:36;;;;;;;7.60;5.90;;;;;;;17.78;100.00;99074.60;109642;1250;72676;-69
2023/09/01 01:18:04;;;;;;;6.80;6.20;;;;;;;17.81;100.00;99083.34;109486;1252;62139;-68
2023/09/01 01:20:34;;;;;;;6.50;6.00;;;;;;;17.80;100.00;99083.36;109565;1250;60031;-69
2023/09/01 01:23:12;;;;;;;6.20;5.70;;;;;;;17.80;100.00;99087.42;109505;1250;74384;-70
2023/09/01 01:25:49;;;;;;;7.90;6.40;;;;;;;17.86;100.00;99087.67;109742;1250;67738;-69
2023/09/01 01:28:15;;;;;;;7.70;6.40;;;;;;;17.88;100.00;99085.91;109659;1250;72687;-69
2023/09/01 01:30:42;;;;;;;6.60;6.10;;;;;;;17.92;100.00;99085.53;109573;1250;60489;-70
2023/09/01 01:33:35;;;;;;;8.60;6.70;;;;;;;17.93;100.00;99085.40;109623;1250;58967;-69
2023/09/01 01:36:02;;;;;;;8.20;6.30;;;;;;;17.94;100.00;99087.20;109673;1250;74938;-67
2023/09/01 01:38:29;;;;;;;6.40;5.80;;;;;;;17.98;100.00;99086.28;109690;1250;68016;-68
2023/09/01 01:41:01;;;;;;;5.60;5.20;;;;;;;17.99;100.00;99083.29;109498;1250;72511;-70
2023/09/01 01:43:28;;;;;;;6.80;5.70;;;;;;;17.94;100.00;99083.85;109629;1250;61677;-70
2023/09/01 01:45:55;;;;;;;5.60;5.10;;;;;;;17.91;100.00;99082.43;109536;1250;58922;-69
2023/09/01 01:48:21;;;;;;;6.90;6.20;;;;;;;17.88;100.00;99085.00;109505;1250;59489;-69
2023/09/01 01:50:48;;;;;;;5.70;5.20;;;;;;;17.91;100.00;99086.70;109662;1251;66381;-70
2023/09/01 01:53:15;;;;;;;9.60;5.70;;;;;;;17.96;100.00;99086.76;109610;1250;72953;-69
2023/09/01 01:55:42;;;;;;;5.20;4.70;;;;;;;17.99;100.00;99087.34;109575;1251;61755;-70
2023/09/01 01:58:09;;;;;;;7.20;5.70;;;;;;;17.99;100.00;99087.17;109548;1255;58877;-70
2023/09/01 02:00:35;;;;;;;5.90;5.40;;;;;;;17.94;100.00;99087.94;109549;1251;74647;-69
2023/09/01 02:03:02;;;;;;;4.80;4.40;;;;;;;17.90;100.00;99092.26;109747;1250;59007;-70
2023/09/01 02:05:29;;;;;;;6.70;6.10;;;;;;;17.86;100.00;99097.10;109695;1250;72534;-70
2023/09/01 02:07:55;;;;;;;5.40;4.90;;;;;;;17.84;100.00;99094.08;109653;1250;58971;-69
2023/09/01 02:10:22;;;;;;;5.30;4.90;;;;;;;17.79;100.00;99088.30;109619;1250;59108;-69
2023/09/01 02:12:48;;;;;;;5.60;4.90;;;;;;;17.78;100.00;99083.69;109742;1253;73163;-69
2023/09/01 02:15:15;;;;;;;8.50;5.50;;;;;;;17.81;100.00;99082.14;109566;1250;59014;-69
2023/09/01 02:17:41;;;;;;;7.00;5.20;;;;;;;17.88;100.00;99080.95;109707;1250;72489;-68
2023/09/01 02:20:17;;;;;;;6.40;5.20;;;;;;;17.94;100.00;99082.73;109676;1250;60688;-69
2023/09/01 02:22:44;;;;;;;6.10;5.50;;;;;;;17.99;100.00;99084.69;109683;1250;58872;-69
2023/09/01 02:25:12;;;;;;;5.70;5.30;;;;;;;18.00;100.00;99087.58;109717;1250;72947;-70
2023/09/01 02:27:40;;;;;;;5.90;5.50;;;;;;;18.02;100.00;99092.48;109645;1251;66768;-68
2023/09/01 02:30:08;;;;;;;6.30;5.10;;;;;;;18.03;100.00;99094.87;109672;1250;71432;-68
2023/09/01 02:32:36;;;;;;;5.90;5.30;;;;;;;17.95;100.00;99090.33;109551;1250;60143;-69
2023/09/01 02:35:06;;;;;;;6.80;6.00;;;;;;;17.81;100.00;99084.91;109692;1250;60108;-68
2023/09/01 02:37:32;;;;;;;5.70;5.20;;;;;;;17.74;100.00;99089.70;109653;1250;74714;-70
2023/09/01 02:40:00;;;;;;;8.20;6.30;;;;;;;17.71;100.00;99088.06;109727;1251;66432;-70
2023/09/01 02:42:27;;;;;;;6.80;5.60;;;;;;;17.72;100.00;99085.61;109683;1250;73217;-70
2023/09/01 02:44:54;;;;;;;6.50;5.80;;;;;;;17.73;100.00;99083.53;109626;1250;61849;-70
2023/09/01 02:47:21;;;;;;;6.70;5.90;;;;;;;17.77;100.00;99083.48;109671;1250;60028;-70
2023/09/01 02:49:48;;;;;;;6.40;5.90;;;;;;;17.78;100.00;99083.84;109643;1250;59052;-70
2023/09/01 02:52:14;;;;;;;6.30;5.70;;;;;;;17.81;100.00;99087.33;109682;1250;59083;-69
2023/09/01 02:54:41;;;;;;;6.60;6.00;;;;;;;17.85;100.00;99088.42;109649;1250;72054;-70
2023/09/01 02:57:07;;;;;;;5.70;5.30;;;;;;;17.90;100.00;99083.85;109551;1250;59238;-69
2023/09/01 02:59:34;;;;;;;6.00;5.40;;;;;;;17.94;100.00;99082.73;109517;1250;58887;-69
2023/09/01 03:02:01;;;;;;;6.30;5.70;;;;;;;17.97;100.00;99083.02;109587;1250;73451;-68
2023/09/01 03:04:30;;;;;;;6.30;5.60;;;;;;;17.96;100.00;99084.02;109605;1250;66649;-70
2023/09/01 03:06:57;;;;;;;5.40;5.00;;;;;;;17.93;100.00;99088.83;109499;1250;72537;-70
2023/09/01 03:09:24;;;;;;;6.40;5.80;;;;;;;17.91;100.00;99095.77;109613;1250;60464;-69
2023/09/01 03:11:50;;;;;;;5.70;5.30;;;;;;;17.87;100.00;99098.22;109617;1250;58967;-68
2023/09/01 03:14:17;;;;;;;5.40;4.90;;;;;;;17.84;100.00;99102.27;109570;1250;73215;-68
2023/09/01 03:16:43;;;;;;;5.90;5.30;;;;;;;17.80;100.00;99104.84;109543;1250;67061;-70
2023/09/01 03:19:10;;;;;;;5.00;4.60;;;;;;;17.76;100.00;99108.12;109556;1250;71269;-69
2023/09/01 03:21:37;;;;;;;5.50;4.90;;;;;;;17.69;100.00;99110.27;109473;1250;60571;-69
2023/09/01 03:24:04;;;;;;;5.50;5.10;;;;;;;17.65;100.00;99112.80;109646;1250;59298;-70
2023/09/01 03:26:30;;;;;;;5.50;5.10;;;;;;;17.62;100.00;99108.30;109533;1250;73170;-70
2023/09/01 03:28:57;;;;;;;5.00;4.60;;;;;;;17.62;100.00;99111.94;109490;1251;68009;-69
2023/09/01 03:31:26;;;;;;;4.90;4.40;;;;;;;17.60;100.00;99115.16;109479;1250;72624;-68
2023/09/01 03:33:54;;;;;;;5.20;4.60;;;;;;;17.57;100.00;99117.44;109511;1250;60235;-68
2023/09/01 03:36:22;;;;;;;5.30;4.90;;;;;;;17.49;100.00;99120.39;109543;1251;58968;-69
2023/09/01 03:38:48;;;;;;;5.60;5.10;;;;;;;17.48;100.00;99122.02;109715;1250;74388;-70
2023/09/01 03:41:15;;;;;;;5.70;5.00;;;;;;;17.45;100.00;99119.69;109699;1250;67593;-69
2023/09/01 03:43:41;;;;;;;5.10;4.70;;;;;;;17.44;100.00;99124.59;109541;1251;71098;-69
2023/09/01 03:46:08;;;;;;;4.90;4.50;;;;;;;17.42;100.00;99129.11;109690;1250;61720;-69
2023/09/01 03:48:35;;;;;;;5.30;4.90;;;;;;;17.40;100.00;99128.34;109570;1253;60303;-69
2023/09/01 03:51:05;;;;;;;4.50;4.10;;;;;;;17.39;100.00;99131.34;109695;1250;73810;-70
2023/09/01 03:53:31;;;;;;;5.00;4.60;;;;;;;17.35;100.00;99134.60;109378;1256;69341;-69
2023/09/01 03:56:08;;;;;;;5.30;4.90;;;;;;;17.32;100.00;99131.27;109630;1251;71152;-69
2023/09/01 03:58:36;;;;;;;5.10;4.60;;;;;;;17.29;100.00;99136.94;109639;1250;60703;-68
2023/09/01 04:01:08;;;;;;;4.90;4.50;;;;;;;17.26;100.00;99137.26;109592;1251;60006;-70
2023/09/01 04:03:35;;;;;;;5.00;4.50;;;;;;;17.24;100.00;99135.78;109540;1251;73506;-68
2023/09/01 04:06:04;;;;;;;5.00;4.60;;;;;;;17.23;100.00;99131.12;109700;1250;67726;-70
2023/09/01 04:08:34;;;;;;;5.10;4.50;;;;;;;17.19;100.00;99127.76;109632;1251;71228;-68
2023/09/01 04:11:02;;;;;;;5.60;5.20;;;;;;;17.19;100.00;99135.08;109693;1250;60181;-69
2023/09/01 04:13:32;;;;;;;5.40;4.90;;;;;;;17.20;100.00;99131.93;109661;1250;60315;-69
2023/09/01 04:16:00;;;;;;;5.40;4.40;;;;;;;17.20;100.00;99133.26;109562;1250;74675;-71
2023/09/01 04:18:27;;;;;;;5.30;4.80;;;;;;;17.20;100.00;99132.56;109651;1250;67900;-70
2023/09/01 04:20:54;;;;;;;5.00;4.60;;;;;;;17.21;100.00;99133.50;109570;1250;72481;-69
2023/09/01 04:23:21;;;;;;;4.90;4.40;;;;;;;17.21;100.00;99133.45;109561;1250;60517;-68
2023/09/01 04:25:48;;;;;;;5.00;4.60;;;;;;;17.24;100.00;99139.30;109491;1251;60723;-70
2023/09/01 04:28:15;;;;;;;5.20;4.70;;;;;;;17.24;100.00;99135.28;109551;1251;75116;-68
2023/09/01 04:30:43;;;;;;;4.90;4.40;;;;;;;17.25;100.00;99137.09;109448;1250;66303;-68
2023/09/01 04:33:10;;;;;;;5.00;4.10;;;;;;;17.27;100.00;99135.76;109697;1250;72456;-70
2023/09/01 04:35:38;;;;;;;6.10;4.80;;;;;;;17.32;100.00;99133.73;109513;1251;61801;-69
2023/09/01 04:38:04;;;;;;;6.00;5.30;;;;;;;17.37;100.00;99134.88;109676;1250;59999;-71
2023/09/01 04:40:31;;;;;;;4.90;4.50;;;;;;;17.42;100.00;99141.10;109606;1251;74659;-68
2023/09/01 04:42:58;;;;;;;5.40;4.90;;;;;;;17.44;100.00;99143.32;109484;1251;59063;-68
2023/09/01 04:45:24;;;;;;;6.60;5.30;;;;;;;17.44;100.00;99145.98;109622;1251;72712;-69
2023/09/01 04:47:51;;;;;;;5.60;5.10;;;;;;;17.44;100.00;99149.86;109600;1251;61662;-70
2023/09/01 04:50:18;;;;;;;6.40;5.40;;;;;;;17.44;100.00;99149.77;109530;1250;60660;-70
2023/09/01 04:52:45;;;;;;;5.60;5.20;;;;;;;17.47;100.00;99147.61;109526;1250;73214;-76
2023/09/01 04:55:12;;;;;;;4.60;4.20;;;;;;;17.46;100.00;99150.14;109491;1250;67640;-72
2023/09/01 04:57:38;;;;;;;8.40;5.40;;;;;;;17.45;100.00;99150.92;109552;1250;71642;-67
2023/09/01 05:00:15;;;;;;;7.20;5.90;;;;;;;17.48;100.00;99155.91;109518;1251;60530;-67
2023/09/01 05:02:44;;;;;;;7.30;5.60;;;;;;;17.51;100.00;99161.05;109624;1251;60665;-66
2023/09/01 05:05:12;;;;;;;8.60;6.30;;;;;;;17.54;100.00;99160.98;109564;1250;74661;-68
2023/09/01 05:07:38;;;;;;;6.50;5.80;;;;;;;17.54;100.00;99163.06;109562;1251;67749;-67
2023/09/01 05:10:06;;;;;;;8.40;5.90;;;;;;;17.53;100.00;99161.41;109510;1250;72677;-72
2023/09/01 05:12:33;;;;;;;8.70;6.40;;;;;;;17.54;100.00;99160.27;109558;1251;61986;-76
2023/09/01 05:15:00;;;;;;;6.50;5.90;;;;;;;17.55;100.00;99158.98;109651;1250;60363;-68
2023/09/01 05:17:26;;;;;;;6.10;5.40;;;;;;;17.59;100.00;99163.02;109415;1251;169728;-68
2023/09/01 05:19:53;;;;;;;6.10;5.50;;;;;;;17.63;100.00;99166.04;109523;1251;66396;-72
2023/09/01 05:22:19;;;;;;;5.80;5.40;;;;;;;17.68;100.00;99169.27;109441;1251;72312;-74
2023/09/01 05:24:48;;;;;;;6.20;5.60;;;;;;;17.72;100.00;99171.98;109591;1251;59184;-70
2023/09/01 05:27:19;;;;;;;5.60;4.80;;;;;;;17.80;100.00;99175.01;109681;1250;58863;-75
2023/09/01 05:29:47;;;;;;;7.00;5.50;;;;;;;17.92;100.00;99176.64;109568;1251;73341;-71
2023/09/01 05:32:13;;;;;;;6.20;5.60;;;;;;;18.07;100.00;99180.42;109448;1250;67792;-72
2023/09/01 05:34:40;;;;;;;6.30;5.70;;;;;;;18.19;100.00;99184.53;109435;1251;72488;-74
2023/09/01 05:37:08;;;;;;;7.10;5.00;;;;;;;18.29;100.00;99178.65;109495;1250;60466;-73
2023/09/01 05:39:35;;;;;;;6.30;5.80;;;;;;;18.47;100.00;99182.48;109541;1251;60105;-71
2023/09/01 05:42:03;;;;;;;6.00;5.30;;;;;;;18.72;100.00;99184.80;109535;1251;73227;-75
2023/09/01 05:44:30;;;;;;;7.80;5.80;;;;;;;19.00;100.00;99181.32;109611;1251;66542;-72
2023/09/01 05:46:57;;;;;;;8.80;5.60;;;;;;;19.30;100.00;99175.33;109538;1251;71420;-73
2023/09/01 05:49:24;;;;;;;6.80;6.00;;;;;;;19.69;100.00;99173.77;109619;1251;60031;-72
2023/09/01 05:51:51;;;;;;;5.90;5.40;;;;;;;20.18;100.00;99170.92;109648;1250;59044;-73
2023/09/01 05:54:18;;;;;;;6.40;5.10;;;;;;;20.78;100.00;99169.92;109587;1251;73144;-73
2023/09/01 05:56:45;;;;;;;7.30;6.10;;;;;;;21.31;100.00;99168.54;109714;1251;66247;-74
2023/09/01 05:59:11;;;;;;;8.30;6.50;;;;;;;21.80;100.00;99164.22;109648;1251;72430;-72
2023/09/01 06:01:39;;;;;;;9.90;7.30;;;;;;;22.10;100.00;99156.48;109605;1251;60034;-75
2023/09/01 06:04:06;;;;;;;14.20;8.20;;;;;;;22.20;100.00;99156.86;109619;1251;60262;-75
2023/09/01 06:06:33;;;;;;;10.90;9.00;;;;;;;22.23;100.00;99153.27;109532;1250;73374;-75
2023/09/01 06:09:00;;;;;;;9.70;8.70;;;;;;;22.20;100.00;99153.39;109700;1251;67809;-71
2023/09/01 06:11:28;;;;;;;9.00;8.10;;;;;;;22.15;100.00;99158.15;109731;1251;71710;-74
2023/09/01 06:13:55;;;;;;;13.60;9.20;;;;;;;22.12;100.00;99159.37;109675;1251;60220;-73
2023/09/01 06:16:22;;;;;;;10.40;9.10;;;;;;;22.16;100.00;99155.02;109587;1251;59169;-73
2023/09/01 06:18:49;;;;;;;10.50;8.20;;;;;;;22.26;100.00;99152.27;109766;1250;75219;-74
2023/09/01 06:21:15;;;;;;;9.70;8.20;;;;;;;22.46;100.00;99155.64;109664;1250;67675;-73
2023/09/01 06:23:45;;;;;;;9.10;8.20;;;;;;;22.73;100.00;99151.73;109586;1251;71337;-73
2023/09/01 06:26:13;;;;;;;8.10;7.20;;;;;;;22.95;100.00;99149.48;109633;1251;59438;-75
2023/09/01 06:28:42;;;;;;;6.40;5.80;;;;;;;23.06;100.00;99153.86;109695;1251;60654;-73
2023/09/01 06:31:09;;;;;;;5.40;4.40;;;;;;;23.15;100.00;99154.70;109728;1250;74488;-72
2023/09/01 06:33:36;;;;;;;4.20;3.90;;;;;;;23.17;100.00;99160.68;109689;1251;66508;-73
2023/09/01 06:36:04;;;;;;;4.90;4.40;;;;;;;23.15;100.00;99161.10;109667;1251;71169;-73
2023/09/01 06:38:30;;;;;;;5.50;5.00;;;;;;;23.09;100.00;99161.86;109629;1251;60366;-74
2023/09/01 06:40:57;;;;;;;5.30;4.80;;;;;;;22.98;100.00;99168.65;109532;1250;58934;-73
2023/09/01 06:43:24;;;;;;;4.80;4.40;;;;;;;22.85;100.00;99170.66;109707;1250;74717;-75
2023/09/01 06:45:50;;;;;;;5.00;4.60;;;;;;;22.79;100.00;99166.15;109684;1251;67665;-72
2023/09/01 06:48:17;;;;;;;4.90;4.10;;;;;;;22.76;100.00;99168.11;109634;1251;71716;-70
2023/09/01 06:50:44;;;;;;;4.50;4.10;;;;;;;22.67;100.00;99173.52;109644;1251;59531;-72
2023/09/01 06:53:10;;;;;;;4.60;4.20;;;;;;;22.54;100.00;99176.72;109687;1250;58907;-71
2023/09/01 06:55:37;;;;;;;4.50;4.20;;;;;;;22.44;100.00;99181.90;109622;1251;58966;-72
2023/09/01 06:58:05;;;;;;;6.50;5.10;;;;;;;22.40;100.00;99184.61;109706;1251;67623;-73
2023/09/01 07:00:32;;;;;;;6.40;4.70;;;;;;;22.43;100.00;99186.55;109647;1250;72415;-73
2023/09/01 07:02:58;;;;;;;4.50;4.10;;;;;;;22.53;100.00;99187.10;109635;1251;60112;-72
2023/09/01 07:05:25;;;;;;;4.70;4.20;;;;;;;22.76;100.00;99188.73;109563;1250;59466;-72
2023/09/01 07:07:52;;;;;;;3.70;3.40;;;;;;;23.10;100.00;99193.02;109649;1250;74617;-72
2023/09/01 07:10:19;;;;;;;4.90;4.50;;;;;;;23.55;100.00;99189.86;109591;1251;67216;-72
2023/09/01 07:12:46;;;;;;;4.40;4.10;;;;;;;24.07;100.00;99188.88;109604;1251;72658;-76
2023/09/01 07:15:12;;;;;;;5.10;4.70;;;;;;;24.53;100.00;99183.49;109664;1251;58911;-74
2023/09/01 07:17:39;;;;;;;4.90;4.40;;;;;;;24.99;100.00;99187.04;109657;1250;60345;-75
2023/09/01 07:20:06;;;;;;;5.00;4.60;;;;;;;25.50;100.00;99189.62;109708;1250;74507;-75
2023/09/01 07:22:33;;;;;;;5.20;4.70;;;;;;;25.83;100.00;99188.27;109721;1250;66718;-75
2023/09/01 07:25:00;;;;;;;5.80;4.60;;;;;;;25.96;100.00;99184.48;109665;1250;72537;-74
2023/09/01 07:27:26;;;;;;;4.70;4.30;;;;;;;26.02;100.00;99190.39;109588;1251;58991;-73
2023/09/01 07:29:53;;;;;;;4.10;3.80;;;;;;;26.04;100.00;99188.91;109625;1250;59134;-72
2023/09/01 07:32:19;;;;;;;6.40;3.90;;;;;;;26.10;100.00;99182.85;109538;1251;74873;-72
2023/09/01 07:34:47;;;;;;;3.70;3.30;;;;;;;26.49;100.00;99182.03;109656;1250;59010;-76
2023/09/01 07:37:14;;;;;;;5.60;3.30;;;;;;;27.09;99.78;99178.13;109649;1250;71255;-73
2023/09/01 07:39:40;;;;;;;5.40;3.80;;;;;;;27.48;95.97;99179.05;109566;1251;59267;-73
2023/09/01 07:42:07;;;;;;;2.70;2.50;;;;;;;27.40;90.65;99181.35;109667;1250;60101;-75
2023/09/01 07:44:34;;;;;;;2.60;2.40;;;;;;;27.22;89.54;99187.94;109545;1251;74273;-74
2023/09/01 07:47:01;;;;;;;4.10;2.80;;;;;;;27.33;89.82;99185.81;109610;1250;67268;-71
2023/09/01 07:49:27;;;;;;;2.90;2.70;;;;;;;27.66;88.19;99188.70;109613;1250;72490;-72
2023/09/01 07:51:54;;;;;;;3.80;3.20;;;;;;;27.98;84.46;99187.60;109581;1250;60143;-72
2023/09/01 07:54:20;;;;;;;3.40;2.80;;;;;;;28.26;83.01;99188.45;109670;1250;58881;-74
2023/09/01 07:56:47;;;;;;;3.30;2.90;;;;;;;28.51;81.28;99191.86;109650;1251;73421;-74
2023/09/01 07:59:14;;;;;;;4.50;4.00;;;;;;;28.80;79.65;99191.52;109618;1250;68495;-75
2023/09/01 08:01:40;;;;;;;4.70;4.20;;;;;;;29.00;76.77;99195.23;109661;1250;72537;-75
2023/09/01 08:04:07;;;;;;;4.20;3.80;;;;;;;29.15;74.09;99195.92;109644;1250;60269;-73
2023/09/01 08:06:33;;;;;;;3.30;3.00;;;;;;;29.24;71.25;99194.33;109634;1250;58975;-74
2023/09/01 08:09:00;;;;;;;4.80;3.30;;;;;;;29.39;69.41;99199.71;109561;1250;74427;-72
2023/09/01 08:11:27;;;;;;;3.50;3.20;;;;;;;29.72;67.25;99197.73;109648;1250;67930;-73
2023/09/01 08:13:53;;;;;;;4.10;3.20;;;;;;;29.97;63.99;99205.61;109570;1251;72944;-71
2023/09/01 08:16:20;;;;;;;4.30;3.40;;;;;;;30.13;62.78;99206.08;109663;1250;59155;-72
2023/09/01 08:18:47;;;;;;;3.00;2.70;;;;;;;30.30;61.17;99202.76;109695;1250;60085;-73
2023/09/01 08:21:13;;;;;;;2.70;2.40;;;;;;;30.42;59.29;99203.26;109490;1250;74639;-75
2023/09/01 08:23:40;;;;;;;4.20;2.30;;;;;;;30.59;57.36;99202.88;109657;1250;66580;-73
2023/09/01 08:26:07;;;;;;;1.90;1.80;;;;;;;30.78;55.55;99201.80;109677;1250;72558;-75
2023/09/01 08:28:33;;;;;;;2.10;1.80;;;;;;;30.98;54.31;99199.00;109676;1250;60284;-73
2023/09/01 08:31:02;;;;;;;2.30;2.10;;;;;;;31.31;52.23;99201.13;109687;1250;60156;-72
2023/09/01 08:33:29;;;;;;;2.00;1.80;;;;;;;31.41;49.95;99202.36;109641;1250;74582;-76
2023/09/01 08:35:55;;;;;;;2.10;1.90;;;;;;;31.35;49.26;99202.95;109618;1251;66547;-74
2023/09/01 08:38:22;;;;;;;2.00;1.80;;;;;;;31.37;48.78;99204.31;109633;1250;71391;-75
2023/09/01 08:40:49;;;;;;;3.20;1.80;;;;;;;31.39;47.81;99203.78;109526;1250;60093;-67
2023/09/01 08:43:16;;;;;;;2.70;2.10;;;;;;;31.45;45.78;99197.05;109598;1250;60135;-72
2023/09/01 08:45:42;;;;;;;2.80;1.70;;;;;;;31.38;44.28;99198.26;109603;1250;74528;-73
2023/09/01 08:48:09;;;;;;;2.20;2.00;;;;;;;31.25;44.43;99196.51;109527;1250;68166;-71
2023/09/01 08:50:36;;;;;;;1.70;1.60;;;;;;;31.30;44.39;99193.02;109574;1250;72693;-69
2023/09/01 08:53:03;;;;;;;1.60;1.50;;;;;;;31.33;43.91;99196.41;109549;1250;58984;-71
2023/09/01 08:55:30;;;;;;;2.40;1.60;;;;;;;31.28;43.78;99200.38;109682;1250;59066;-73
2023/09/01 08:57:56;;;;;;;1.60;1.40;;;;;;;31.14;43.01;99204.40;109717;1250;74297;-71
2023/09/01 09:00:23;;;;;;;4.50;2.20;;;;;;;31.03;42.86;99204.29;109681;1250;59031;-70
2023/09/01 09:02:49;;;;;;;2.90;1.70;;;;;;;30.95;42.65;99201.95;109665;1250;71151;-69
2023/09/01 09:05:34;;;;;;;1.90;1.80;;;;;;;30.91;43.03;99205.70;109652;1250;60066;-71
2023/09/01 09:08:03;;;;;;;3.50;1.80;;;;;;;30.90;42.86;99206.98;109593;1250;59072;-71
2023/09/01 09:10:41;;;;;;;3.30;2.00;;;;;;;30.88;42.88;99204.38;109646;1250;74230;-70
2023/09/01 09:13:21;;;;;;;1.90;1.70;;;;;;;30.99;42.16;99206.09;109665;1250;68912;-69
2023/09/01 09:16:09;;;;;;;2.60;1.80;;;;;;;31.05;41.23;99205.65;109682;1250;71258;-70
2023/09/01 09:18:37;;;;;;;2.00;1.90;;;;;;;31.17;40.98;99204.48;109593;1250;59337;-66
2023/09/01 09:21:03;;;;;;;2.00;1.80;;;;;;;31.32;40.77;99202.31;109563;1250;60014;-66
2023/09/01 09:23:43;;;;;;;3.70;1.70;;;;;;;31.56;40.27;99197.78;109672;1250;74740;-66
2023/09/01 09:26:11;;;;;;;6.40;2.10;;;;;;;31.85;40.14;99199.56;109607;1250;66616;-66
2023/09/01 09:28:37;;;;;;;2.10;1.80;;;;;;;32.03;39.88;99204.30;109479;1251;73080;-67
2023/09/01 09:31:04;;;;;;;1.90;1.70;;;;;;;32.24;39.81;99207.27;109592;1250;59251;-63
2023/09/01 09:33:34;;;;;;;5.20;2.00;;;;;;;32.40;39.30;99208.02;109668;1250;59143;-64
2023/09/01 09:36:01;;;;;;;3.10;2.40;;;;;;;32.31;39.28;99210.64;109647;1250;74457;-67
2023/09/01 09:38:46;;;;;;;2.30;2.00;;;;;;;32.18;38.95;99209.38;109648;1250;66125;-66
2023/09/01 09:41:13;;;;;;;1.90;1.50;;;;;;;32.09;38.42;99208.92;109550;1250;71120;-65
2023/09/01 09:43:47;;;;;;;1.90;1.70;;;;;;;32.10;37.07;99212.47;109610;1250;59040;-64
2023/09/01 09:46:14;;;;;;;2.10;1.60;;;;;;;31.96;37.39;99211.45;109691;1250;60097;-65
2023/09/01 09:48:41;;;;;;;1.80;1.60;;;;;;;31.81;36.87;99213.94;109705;1250;75011;-66
2023/09/01 09:51:08;;;;;;;3.20;1.50;;;;;;;31.65;37.42;99213.85;109696;1250;66361;-63
2023/09/01 09:53:36;;;;;;;2.30;1.80;;;;;;;31.55;38.20;99214.23;109597;1250;72697;-68
2023/09/01 09:56:19;;;;;;;2.50;1.70;;;;;;;31.58;38.21;99211.02;109602;1250;60213;-65
2023/09/01 09:58:47;;;;;;;1.80;1.70;;;;;;;31.62;37.67;99210.52;109540;1250;60016;-67
2023/09/01 10:01:17;;;;;;;1.60;1.50;;;;;;;31.55;37.50;99212.97;109536;1250;73079;-67
2023/09/01 10:03:45;;;;;;;1.40;1.30;;;;;;;31.46;37.62;99214.57;109647;1250;66951;-65
2023/09/01 10:06:11;;;;;;;2.20;1.60;;;;;;;31.40;37.93;99210.90;109614;1250;71851;-65
2023/09/01 10:08:38;;;;;;;2.10;1.40;;;;;;;31.42;37.98;99211.30;109610;1250;59027;-65
2023/09/01 10:11:04;;;;;;;1.90;1.50;;;;;;;31.31;37.34;99209.94;109625;1250;59073;-66
2023/09/01 10:13:31;;;;;;;1.70;1.60;;;;;;;31.11;37.01;99216.79;109618;1251;74419;-65
2023/09/01 10:15:57;;;;;;;3.60;2.00;;;;;;;30.98;36.89;99218.41;109397;1250;59305;-67
2023/09/01 10:18:24;;;;;;;1.60;1.50;;;;;;;30.89;37.45;99218.96;109479;1250;71148;-66
2023/09/01 10:20:50;;;;;;;2.50;1.80;;;;;;;30.96;36.93;99214.83;109451;1250;59267;-64
2023/09/01 10:23:17;;;;;;;2.60;1.50;;;;;;;30.89;35.88;99218.23;109317;1250;59203;-67
2023/09/01 10:26:12;;;;;;;2.30;1.40;;;;;;;30.64;35.57;99220.57;109488;1251;73314;-66
2023/09/01 10:28:59;;;;;;;1.50;1.40;;;;;;;30.37;36.33;99220.36;109486;1250;67056;-66
2023/09/01 10:31:28;;;;;;;6.40;1.80;;;;;;;30.18;37.38;99224.58;109545;1250;71483;-65
2023/09/01 10:34:08;;;;;;;7.90;1.40;;;;;;;30.21;38.88;99220.73;109661;1250;58936;-65
2023/09/01 10:36:36;;;;;;;2.00;1.60;;;;;;;30.33;38.62;99226.69;109672;1250;59163;-66
2023/09/01 10:39:23;;;;;;;1.30;1.20;;;;;;;30.31;38.95;99226.62;109676;1250;73269;-66
2023/09/01 10:42:07;;;;;;;2.20;1.60;;;;;;;30.31;38.85;99226.61;109651;1250;66248;-65
2023/09/01 10:44:40;;;;;;;1.70;1.30;;;;;;;30.12;38.97;99228.36;109677;1250;71907;-66
2023/09/01 10:47:31;;;;;;;2.10;1.60;;;;;;;30.11;39.24;99227.94;109652;1250;58898;-65
2023/09/01 10:50:02;;;;;;;1.80;1.70;;;;;;;30.13;39.12;99226.54;109695;1250;60293;-67
2023/09/01 10:52:29;;;;;;;3.40;1.30;;;;;;;30.08;38.72;99218.02;109653;1250;75086;-66
2023/09/01 10:55:06;;;;;;;2.60;1.50;;;;;;;29.96;38.66;99217.80;109611;1250;67767;-67
2023/09/01 10:57:50;;;;;;;1.50;1.40;;;;;;;29.86;38.44;99214.09;109671;1250;72621;-67
2023/09/01 11:00:27;;;;;;;5.00;1.70;;;;;;;29.86;37.53;99216.52;109633;1250;59017;-66
2023/09/01 11:03:29;;;;;;;1.60;1.40;;;;;;;29.82;37.26;99210.08;109550;1250;58897;-68
2023/09/01 11:05:57;;;;;;;1.40;1.30;;;;;;;29.72;37.50;99209.12;109623;1250;74380;-68
2023/09/01 11:08:25;;;;;;;1.50;1.40;;;;;;;29.66;37.83;99213.14;109693;1250;67759;-67
2023/09/01 11:10:55;;;;;;;2.10;2.00;;;;;;;29.55;38.54;99211.79;109679;1250;72531;-69
2023/09/01 11:13:25;;;;;;;1.90;1.60;;;;;;;29.51;39.87;99211.53;109602;1250;60203;-69
2023/09/01 11:15:52;;;;;;;3.20;1.50;;;;;;;29.61;39.25;99212.50;109628;1251;60369;-67
2023/09/01 11:18:23;;;;;;;1.40;1.20;;;;;;;29.71;38.49;99209.86;109603;1250;74427;-66
2023/09/01 11:20:53;;;;;;;2.30;1.30;;;;;;;29.70;37.52;99208.84;109686;1250;68127;-66
2023/09/01 11:23:23;;;;;;;1.90;1.70;;;;;;;29.55;36.63;99204.34;109512;1250;72351;-66
2023/09/01 11:25:57;;;;;;;3.20;1.00;;;;;;;29.26;36.16;99210.99;109503;1250;59203;-66